createdAt,value
2023-03-28T07:08:34.972Z,97539.69
2023-03-28T07:09:36.866Z,97548.31
2023-03-28T07:10:39.590Z,97544.78
2023-03-28T07:11:41.006Z,97551.63
2023-03-28T07:12:42.429Z,97545.34
2023-03-28T07:13:43.925Z,97547.25
2023-03-28T07:14:46.841Z,97538.28
2023-03-28T07:15:48.222Z,97534.03
2023-03-28T07:16:49.620Z,97527.56
2023-03-28T07:17:51.246Z,97544.00
2023-03-28T07:18:52.780Z,97546.34
2023-03-28T07:19:54.343Z,97545.53
2023-03-28T07:21:04.089Z,97547.13
2023-03-28T07:22:06.228Z,97546.28
2023-03-28T07:23:07.658Z,97550.56
2023-03-28T07:24:09.350Z,97551.56
2023-03-28T07:25:11.225Z,97550.66
2023-03-28T07:26:14.076Z,97552.41
2023-03-28T07:27:16.940Z,97548.03
2023-03-28T07:28:18.884Z,97557.63
2023-03-28T07:29:20.488Z,97557.41
2023-03-28T07:30:21.955Z,97552.41
2023-03-28T07:31:24.591Z,97555.38
2023-03-28T07:32:30.974Z,97561.03
2023-03-28T07:33:38.249Z,97563.25
2023-03-28T07:34:40.155Z,97548.06
2023-03-28T07:35:42.017Z,97560.56
2023-03-28T07:36:43.519Z,97562.66
2023-03-28T07:37:44.903Z,97564.44
2023-03-28T07:38:48.429Z,97571.47
2023-03-28T07:39:50.915Z,97556.38
2023-03-28T07:40:52.385Z,97579.22
2023-03-28T07:41:53.950Z,97566.47
2023-03-28T07:42:55.354Z,97574.63
2023-03-28T07:43:56.986Z,97568.19
2023-03-28T07:44:58.494Z,97579.25
2023-03-28T07:46:06.380Z,97573.66
2023-03-28T07:47:09.021Z,97540.56
2023-03-28T07:48:10.855Z,97571.75
2023-03-28T07:49:12.994Z,97571.91
2023-03-28T07:50:14.496Z,97576.25
2023-03-28T07:51:16.249Z,97566.03
2023-03-28T07:52:18.189Z,97592.84
2023-03-28T07:53:19.540Z,97583.19
2023-03-28T07:54:21.641Z,97582.56
2023-03-28T07:55:24.710Z,97585.91
2023-03-28T07:56:27.052Z,97587.34
2023-03-28T07:57:28.650Z,97595.22
2023-03-28T07:58:30.479Z,97591.72
2023-03-28T07:59:31.884Z,97584.56
2023-03-28T08:00:33.455Z,97586.19
2023-03-28T08:01:34.834Z,97592.56
2023-03-28T08:02:36.294Z,97596.47
2023-03-28T08:03:38.554Z,97594.28
2023-03-28T08:04:40.259Z,97595.66
2023-03-28T08:05:43.194Z,97588.19
2023-03-28T08:06:45.656Z,97594.97
2023-03-28T08:07:47.269Z,97599.94
2023-03-28T08:08:48.866Z,97591.16
2023-03-28T08:09:51.023Z,97596.94
2023-03-28T08:10:52.422Z,97599.47
2023-03-28T08:11:53.790Z,97588.31
2023-03-28T08:12:55.216Z,97590.78
2023-03-28T08:13:56.627Z,97581.56
2023-03-28T08:14:58.113Z,97590.53
2023-03-28T08:15:59.659Z,97596.75
2023-03-28T08:17:01.143Z,97596.56
2023-03-28T08:18:02.838Z,97604.22
2023-03-28T08:19:11.243Z,97604.94
2023-03-28T08:20:13.990Z,97600.78
2023-03-28T08:21:15.761Z,97609.25
2023-03-28T08:22:17.176Z,97598.66
2023-03-28T08:23:18.698Z,97593.81
2023-03-28T08:24:32.983Z,97595.59
2023-03-28T08:25:37.172Z,97585.50
2023-03-28T08:26:39.057Z,97593.69
2023-03-28T08:27:40.969Z,97605.06
2023-03-28T08:28:42.497Z,97593.81
2023-03-28T08:29:43.932Z,97598.16
2023-03-28T08:30:45.736Z,97597.06
2023-03-28T08:31:48.007Z,97597.94
2023-03-28T08:32:51.146Z,97591.34
2023-03-28T08:33:53.855Z,97595.72
2023-03-28T08:34:57.661Z,97574.13
2023-03-28T08:35:59.149Z,97588.81
2023-03-28T08:37:00.735Z,97587.53
2023-03-28T08:38:02.184Z,97588.63
2023-03-28T08:39:05.263Z,97586.22
2023-03-28T08:40:10.300Z,97587.66
2023-03-28T08:41:18.639Z,97590.28
2023-03-28T08:42:38.251Z,97586.38
2023-03-28T08:44:13.948Z,97590.00
2023-03-28T08:45:21.393Z,97594.09
2023-03-28T08:46:25.528Z,97588.25
2023-03-28T08:47:30.840Z,97583.41
2023-03-28T08:48:40.630Z,97587.84
2023-03-28T08:49:46.724Z,97599.81
2023-03-28T08:51:23.700Z,97592.34
2023-03-28T08:52:25.814Z,97593.09
2023-03-28T08:53:43.840Z,97599.88
2023-03-28T08:54:49.819Z,97601.63
2023-03-28T08:55:53.690Z,97594.78
2023-03-28T08:56:58.001Z,97586.91
2023-03-28T08:57:59.985Z,97607.84
2023-03-28T08:59:12.596Z,97607.38
2023-03-28T09:00:24.524Z,97609.41
2023-03-28T09:01:29.418Z,97601.84
2023-03-28T09:02:31.514Z,97603.56
2023-03-28T09:03:41.640Z,97608.94
2023-03-28T09:04:43.287Z,97609.31
2023-03-28T09:05:48.047Z,97602.66
2023-03-28T09:07:00.216Z,97605.41
2023-03-28T09:08:19.698Z,97603.31
2023-03-28T09:09:39.131Z,97605.38
2023-03-28T09:10:45.313Z,97601.28
2023-03-28T09:11:54.883Z,97603.63
2023-03-28T09:13:04.350Z,97582.00
2023-03-28T09:14:13.433Z,97601.03
2023-03-28T09:15:37.488Z,97599.25
2023-03-28T09:17:20.690Z,97599.59
2023-03-28T09:18:42.993Z,97598.22
2023-03-28T09:20:11.479Z,97606.16
2023-03-28T09:21:27.680Z,97604.00
2023-03-28T09:22:37.071Z,97608.13
2023-03-28T09:23:39.274Z,97605.88
2023-03-28T09:24:58.503Z,97597.38
2023-03-28T09:26:17.644Z,97603.66
2023-03-28T09:27:29.668Z,97603.81
2023-03-28T09:29:03.632Z,97608.28
2023-03-28T09:30:26.694Z,97614.94
2023-03-28T09:31:33.353Z,97609.09
2023-03-28T09:32:38.384Z,97575.41
2023-03-28T09:33:43.681Z,97610.38
2023-03-28T09:34:49.355Z,97609.50
2023-03-28T09:35:56.106Z,97589.69
2023-03-28T09:37:13.998Z,97592.56
2023-03-28T09:38:38.254Z,97605.28
2023-03-28T09:39:49.578Z,97597.25
2023-03-28T09:40:55.083Z,97609.31
2023-03-28T09:42:04.093Z,97600.41
2023-03-28T09:43:22.214Z,97602.09
2023-03-28T09:44:30.224Z,97590.63
2023-03-28T09:45:53.656Z,97600.31
2023-03-28T09:46:57.604Z,97593.25
2023-03-28T09:48:00.297Z,97594.09
2023-03-28T09:49:02.121Z,97585.31
2023-03-28T09:50:12.570Z,97590.53
2023-03-28T09:51:17.882Z,97594.94
2023-03-28T09:52:21.267Z,97587.25
2023-03-28T09:53:33.142Z,97592.63
2023-03-28T09:54:35.632Z,97595.59
2023-03-28T09:55:37.189Z,97591.47
2023-03-28T09:56:41.957Z,97591.69
2023-03-28T09:58:06.638Z,97601.28
2023-03-28T09:59:31.966Z,97596.03
2023-03-28T10:00:41.229Z,97588.50
2023-03-28T10:01:45.315Z,97591.22
2023-03-28T10:02:52.893Z,97580.59
2023-03-28T10:03:55.886Z,97580.88
2023-03-28T10:04:57.699Z,97584.53
2023-03-28T10:06:01.532Z,97571.97
2023-03-28T10:07:09.048Z,97583.84
2023-03-28T10:08:25.796Z,97584.50
2023-03-28T10:09:31.597Z,97585.06
2023-03-28T10:10:32.980Z,97579.66
2023-03-28T10:11:48.592Z,97577.72
2023-03-28T10:12:57.118Z,97571.25
2023-03-28T10:13:58.669Z,97571.19
2023-03-28T10:15:04.677Z,97574.25
2023-03-28T10:16:07.034Z,97569.66
2023-03-28T10:17:31.471Z,97571.94
2023-03-28T10:18:33.687Z,97562.16
2023-03-28T10:19:39.430Z,97562.16
2023-03-28T10:20:41.443Z,97570.47
2023-03-28T10:21:48.123Z,97561.44
2023-03-28T10:22:51.949Z,97558.91
2023-03-28T10:24:03.920Z,97568.81
2023-03-28T10:25:07.297Z,97564.75
2023-03-28T10:26:13.036Z,97571.94
2023-03-28T10:27:24.208Z,97574.47
2023-03-28T10:28:35.123Z,97565.22
2023-03-28T10:29:37.186Z,97573.16
2023-03-28T10:30:38.889Z,97570.03
2023-03-28T10:31:47.820Z,97571.84
2023-03-28T10:33:17.611Z,97572.56
2023-03-28T10:34:31.013Z,97569.19
2023-03-28T10:35:33.979Z,97568.53
2023-03-28T10:36:41.483Z,97561.59
2023-03-28T10:37:43.064Z,97570.59
2023-03-28T10:38:47.573Z,97565.06
2023-03-28T10:40:06.759Z,97565.50
2023-03-28T10:41:24.608Z,97567.28
2023-03-28T10:42:27.467Z,97563.72
2023-03-28T10:43:42.024Z,97561.47
2023-03-28T10:44:43.538Z,97555.38
2023-03-28T10:45:51.014Z,97564.53
2023-03-28T10:46:53.084Z,97566.50
2023-03-28T10:47:59.073Z,97568.16
2023-03-28T10:49:07.072Z,97568.41
2023-03-28T10:50:22.184Z,97566.34
2023-03-28T10:51:25.855Z,97563.13
2023-03-28T10:52:53.795Z,97564.91
2023-03-28T10:54:20.625Z,97564.00
2023-03-28T10:55:27.335Z,97563.31
2023-03-28T10:56:34.908Z,97559.75
2023-03-28T10:57:39.074Z,97555.78
2023-03-28T10:59:05.326Z,97555.66
2023-03-28T11:00:12.151Z,97551.88
2023-03-28T11:01:21.194Z,97563.28
2023-03-28T11:02:51.655Z,97555.28
2023-03-28T11:04:24.275Z,97554.22
2023-03-28T11:05:41.254Z,97545.50
2023-03-28T11:07:04.047Z,97545.75
2023-03-28T11:08:44.745Z,97546.09
2023-03-28T11:09:51.925Z,97525.53
2023-03-28T11:11:20.255Z,97538.34
2023-03-28T11:14:21.746Z,97543.72
2023-03-28T11:14:39.281Z,97545.47
2023-03-28T11:15:45.871Z,97539.09
2023-03-28T11:16:58.946Z,97542.75
2023-03-28T11:18:19.961Z,97542.09
2023-03-28T11:19:39.996Z,97542.66
2023-03-28T11:20:50.726Z,97535.69
2023-03-28T11:22:26.628Z,97530.06
2023-03-28T11:23:38.623Z,97541.19
2023-03-28T11:24:57.204Z,97533.72
2023-03-28T11:26:12.995Z,97531.44
2023-03-28T11:27:48.461Z,97534.94
2023-03-28T11:29:30.404Z,97527.59
2023-03-28T11:30:41.007Z,97527.66
2023-03-28T11:32:07.148Z,97522.66
2023-03-28T11:33:14.094Z,97522.16
2023-03-28T11:34:32.535Z,97520.78
2023-03-28T11:35:34.019Z,97520.13
2023-03-28T11:36:49.797Z,97509.22
2023-03-28T11:38:22.156Z,97516.09
2023-03-28T11:39:49.286Z,97515.41
2023-03-28T11:40:56.727Z,97505.25
2023-03-28T11:42:05.367Z,97510.84
2023-03-28T11:43:13.571Z,97503.44
2023-03-28T11:44:30.559Z,97501.16
2023-03-28T11:45:50.184Z,97490.22
2023-03-28T11:47:07.503Z,97506.13
2023-03-28T11:48:20.052Z,97499.28
2023-03-28T11:49:36.115Z,97488.94
2023-03-28T11:51:08.066Z,97498.28
2023-03-28T11:52:26.200Z,97484.00
2023-03-28T11:53:34.745Z,97484.41
2023-03-28T11:54:49.364Z,97498.47
2023-03-28T11:55:58.395Z,97486.94
2023-03-28T11:57:06.942Z,97485.09
2023-03-28T11:58:17.648Z,97479.06
2023-03-28T11:59:28.947Z,97484.00
2023-03-28T12:00:42.486Z,97482.00
2023-03-28T12:01:49.202Z,97477.63
2023-03-28T12:02:56.610Z,97470.88
2023-03-28T12:04:09.539Z,97477.03
2023-03-28T12:05:32.880Z,97478.72
2023-03-28T12:06:55.872Z,97478.69
2023-03-28T12:08:39.244Z,97480.81
2023-03-28T12:09:49.485Z,97473.97
2023-03-28T12:10:57.233Z,97477.72
2023-03-28T12:12:01.901Z,97480.31
2023-03-28T12:13:06.827Z,97480.22
2023-03-28T12:14:33.348Z,97473.91
2023-03-28T12:15:43.198Z,97467.47
2023-03-28T12:16:48.065Z,97469.16
2023-03-28T12:17:58.979Z,97470.44
2023-03-28T12:19:03.553Z,97465.97
2023-03-28T12:20:12.912Z,97469.06
2023-03-28T12:21:24.060Z,97466.72
2023-03-28T12:22:32.636Z,97461.50
2023-03-28T12:23:41.832Z,97463.47
2023-03-28T12:25:00.224Z,97460.22
2023-03-28T12:26:14.478Z,97450.56
2023-03-28T12:27:25.579Z,97454.91
2023-03-28T12:28:39.964Z,97447.06
2023-03-28T12:29:56.833Z,97444.50
2023-03-28T12:31:20.095Z,97451.25
2023-03-28T12:32:23.616Z,97445.97
2023-03-28T12:33:45.942Z,97441.16
2023-03-28T12:35:07.268Z,97435.38
2023-03-28T12:36:34.077Z,97440.41
2023-03-28T12:37:51.501Z,97433.72
2023-03-28T12:38:59.109Z,97429.06
2023-03-28T12:40:00.550Z,97434.94
2023-03-28T12:41:05.592Z,97432.00
2023-03-28T12:42:11.932Z,97432.66
2023-03-28T12:43:16.989Z,97427.09
2023-03-28T12:44:24.522Z,97431.56
2023-03-28T12:45:38.614Z,97426.22
2023-03-28T12:46:46.735Z,97411.13
2023-03-28T12:47:54.559Z,97422.97
2023-03-28T12:49:02.876Z,97424.88
2023-03-28T12:50:40.949Z,97422.53
2023-03-28T12:51:53.397Z,97419.50
2023-03-28T12:52:56.448Z,97431.06
2023-03-28T12:54:08.273Z,97419.66
2023-03-28T12:55:24.931Z,97419.31
2023-03-28T12:56:27.215Z,97423.91
2023-03-28T12:57:40.876Z,97425.56
2023-03-28T12:58:46.206Z,97409.00
2023-03-28T13:00:26.688Z,97414.97
2023-03-28T13:01:57.078Z,97419.28
2023-03-28T13:03:07.711Z,97408.75
2023-03-28T13:04:28.046Z,97407.75
2023-03-28T13:05:52.189Z,97408.03
2023-03-28T13:07:17.802Z,97412.78
2023-03-28T13:08:42.766Z,97409.91
2023-03-28T13:09:46.839Z,97411.16
2023-03-28T13:11:12.999Z,97405.66
2023-03-28T13:12:52.371Z,97400.81
2023-03-28T13:14:03.889Z,97404.47
2023-03-28T13:15:26.094Z,97401.50
2023-03-28T13:16:45.146Z,97403.78
2023-03-28T13:17:49.050Z,97405.72
2023-03-28T13:19:10.922Z,97402.00
2023-03-28T13:20:15.518Z,97399.09
2023-03-28T13:21:49.510Z,97404.81
2023-03-28T13:23:02.069Z,97395.31
2023-03-28T13:24:03.546Z,97401.66
2023-03-28T13:25:21.252Z,97400.47
2023-03-28T13:26:23.746Z,97396.41
2023-03-28T13:27:32.560Z,97397.94
2023-03-28T13:28:41.950Z,97404.78
2023-03-28T13:29:52.314Z,97405.06
2023-03-28T13:31:09.301Z,97410.44
2023-03-28T13:32:17.098Z,97398.13
2023-03-28T13:33:26.858Z,97397.09
2023-03-28T13:34:33.948Z,97389.13
2023-03-28T13:35:40.262Z,97393.88
2023-03-28T13:36:50.778Z,97393.41
2023-03-28T13:37:52.198Z,97385.00
2023-03-28T13:39:08.078Z,97387.59
2023-03-28T13:40:54.544Z,97383.34
2023-03-28T13:41:58.064Z,97378.56
2023-03-28T13:43:00.182Z,97376.44
2023-03-28T13:44:17.638Z,97358.16
2023-03-28T13:45:23.020Z,97371.09
2023-03-28T13:46:45.498Z,97355.13
2023-03-28T13:47:53.052Z,97356.00
2023-03-28T13:49:11.284Z,97353.13
2023-03-28T13:50:37.580Z,97356.53
2023-03-28T13:51:52.147Z,97360.06
2023-03-28T13:52:53.567Z,97347.28
2023-03-28T13:53:55.014Z,97338.41
2023-03-28T13:55:04.878Z,97346.75
2023-03-28T13:56:21.727Z,97349.66
2023-03-28T13:57:26.691Z,97347.47
2023-03-28T13:58:29.058Z,97329.41
2023-03-28T13:59:37.039Z,97336.66
2023-03-28T14:00:38.912Z,97335.69
2023-03-28T14:01:54.059Z,97332.88
2023-03-28T14:03:03.652Z,97338.66
2023-03-28T14:04:16.296Z,97342.66
2023-03-28T14:05:29.224Z,97336.94
2023-03-28T14:06:30.725Z,97335.94
2023-03-28T14:07:32.208Z,97332.50
2023-03-28T14:08:33.729Z,97321.16
2023-03-28T14:09:35.208Z,97323.75
2023-03-28T14:10:42.952Z,97323.59
2023-03-28T14:11:45.147Z,97325.69
2023-03-28T14:12:46.877Z,97323.84
2023-03-28T14:13:50.051Z,97320.97
2023-03-28T14:14:57.250Z,97304.63
2023-03-28T14:15:58.879Z,97318.41
2023-03-28T14:17:03.610Z,97317.88
2023-03-28T14:18:07.302Z,97314.13
2023-03-28T14:19:13.030Z,97316.91
2023-03-28T14:20:17.914Z,97311.66
2023-03-28T14:21:24.031Z,97307.44
2023-03-28T14:22:30.902Z,97316.06
2023-03-28T14:23:35.867Z,97322.09
2023-03-28T14:24:37.378Z,97303.34
2023-03-28T14:25:38.791Z,97310.75
2023-03-28T14:26:40.180Z,97309.59
2023-03-28T14:27:45.338Z,97307.69
2023-03-28T14:28:47.200Z,97306.03
2023-03-28T14:29:56.845Z,97303.22
2023-03-28T14:30:59.694Z,97304.91
2023-03-28T14:32:07.548Z,97297.72
2023-03-28T14:33:14.393Z,97296.81
2023-03-28T14:34:25.875Z,97298.44
2023-03-28T14:35:35.805Z,97296.66
2023-03-28T14:37:06.129Z,97294.19
2023-03-28T14:38:26.469Z,97291.50
2023-03-28T14:39:30.371Z,97287.34
2023-03-28T14:40:33.475Z,97286.28
2023-03-28T14:41:36.443Z,97282.50
2023-03-28T14:42:37.870Z,97284.78
2023-03-28T14:43:39.721Z,97280.59
2023-03-28T14:44:43.791Z,97291.81
2023-03-28T14:45:51.702Z,97279.44
2023-03-28T14:46:57.610Z,97283.25
2023-03-28T14:47:59.531Z,97284.94
2023-03-28T14:49:05.153Z,97250.16
2023-03-28T14:50:08.179Z,97275.78
2023-03-28T14:51:12.630Z,97274.44
2023-03-28T14:52:17.633Z,97273.59
2023-03-28T14:53:27.779Z,97270.19
2023-03-28T14:54:37.654Z,97267.22
2023-03-28T14:55:41.777Z,97268.53
2023-03-28T14:56:45.471Z,97267.56
2023-03-28T14:57:56.362Z,97269.06
2023-03-28T14:59:02.223Z,97262.97
2023-03-28T15:00:12.401Z,97272.28
2023-03-28T15:01:23.117Z,97266.38
2023-03-28T15:02:28.762Z,97262.06
2023-03-28T15:03:34.924Z,97254.78
2023-03-28T15:04:36.677Z,97254.28
2023-03-28T15:05:38.144Z,97252.66
2023-03-28T15:06:39.732Z,97253.72
2023-03-28T15:07:42.515Z,97258.63
2023-03-28T15:08:45.027Z,97258.78
2023-03-28T15:10:10.586Z,97248.78
2023-03-28T15:11:37.086Z,97246.22
2023-03-28T15:12:50.186Z,97249.16
2023-03-28T15:14:28.966Z,97240.88
2023-03-28T15:15:35.133Z,97249.09
2023-03-28T15:16:40.638Z,97244.16
2023-03-28T15:17:43.632Z,97239.38
2023-03-28T15:18:51.726Z,97237.19
2023-03-28T15:19:58.315Z,97239.00
2023-03-28T15:21:03.622Z,97236.22
2023-03-28T15:22:14.886Z,97229.44
2023-03-28T15:23:23.996Z,97190.53
2023-03-28T15:24:28.069Z,97230.28
2023-03-28T15:25:31.266Z,97212.78
2023-03-28T15:26:41.903Z,97226.78
2023-03-28T15:27:48.939Z,97214.63
2023-03-28T15:28:51.001Z,97218.50
2023-03-28T15:29:53.063Z,97223.16
2023-03-28T15:30:58.434Z,97220.03
2023-03-28T15:32:15.399Z,97214.94
2023-03-28T15:33:25.953Z,97227.34
2023-03-28T15:34:27.885Z,97213.31
2023-03-28T15:35:36.734Z,97214.63
2023-03-28T15:36:48.968Z,97215.53
2023-03-28T15:37:50.823Z,97210.59
2023-03-28T15:39:00.563Z,97212.19
2023-03-28T15:40:22.950Z,97207.69
2023-03-28T15:41:29.029Z,97205.16
2023-03-28T15:42:34.737Z,97205.63
2023-03-28T15:43:54.018Z,97191.31
2023-03-28T15:44:58.462Z,97195.81
2023-03-28T15:46:02.203Z,97189.25
2023-03-28T15:47:13.257Z,97189.00
2023-03-28T15:48:17.846Z,97192.88
2023-03-28T15:49:19.321Z,97186.25
2023-03-28T15:50:33.316Z,97192.19
2023-03-28T15:51:48.639Z,97185.81
2023-03-28T15:52:56.386Z,97183.50
2023-03-28T15:54:01.262Z,97190.75
2023-03-28T15:55:05.659Z,97189.44
2023-03-28T15:56:17.007Z,97188.53
2023-03-28T15:57:21.673Z,97191.22
2023-03-28T15:58:23.289Z,97191.53
2023-03-28T15:59:42.220Z,97189.25
2023-03-28T16:00:47.636Z,97179.19
2023-03-28T16:01:49.058Z,97184.13
2023-03-28T16:02:50.504Z,97186.72
2023-03-28T16:04:15.633Z,97187.97
2023-03-28T16:05:17.076Z,97188.00
2023-03-28T16:06:31.623Z,97187.59
2023-03-28T16:07:48.209Z,97186.84
2023-03-28T16:09:14.802Z,97190.69
2023-03-28T16:10:18.742Z,97188.78
2023-03-28T16:11:24.049Z,97200.56
2023-03-28T16:12:26.611Z,97193.72
2023-03-28T16:13:29.390Z,97192.69
2023-03-28T16:14:31.079Z,97190.84
2023-03-28T16:15:32.746Z,97179.38
2023-03-28T16:16:34.299Z,97191.72
2023-03-28T16:17:36.304Z,97188.88
2023-03-28T16:18:37.743Z,97175.78
2023-03-28T16:19:39.253Z,97182.25
2023-03-28T16:20:40.767Z,97142.63
2023-03-28T16:21:42.099Z,97175.75
2023-03-28T16:22:44.595Z,97183.41
2023-03-28T16:23:46.296Z,97180.00
2023-03-28T16:24:52.257Z,97172.56
2023-03-28T16:25:53.822Z,97181.41
2023-03-28T16:26:55.515Z,97173.75
2023-03-28T16:27:57.749Z,97166.88
2023-03-28T16:28:59.122Z,97167.59
2023-03-28T16:30:00.666Z,97166.44
2023-03-28T16:31:02.174Z,97156.28
2023-03-28T16:32:03.855Z,97146.19
2023-03-28T16:33:08.247Z,97153.41
2023-03-28T16:34:10.286Z,97163.28
2023-03-28T16:35:12.343Z,97160.19
2023-03-28T16:36:13.764Z,97166.44
2023-03-28T16:37:15.407Z,97158.22
2023-03-28T16:38:16.864Z,97159.63
2023-03-28T16:39:18.199Z,97155.16
2023-03-28T16:40:20.172Z,97152.63
2023-03-28T16:41:21.863Z,97150.44
2023-03-28T16:42:24.508Z,97156.44
2023-03-28T16:43:26.176Z,97153.63
2023-03-28T16:44:27.580Z,97148.41
2023-03-28T16:45:30.461Z,97153.25
2023-03-28T16:46:32.127Z,97159.50
2023-03-28T16:47:33.630Z,97157.28
2023-03-28T16:48:35.628Z,97147.34
2023-03-28T16:49:37.123Z,97148.19
2023-03-28T16:50:38.625Z,97156.97
2023-03-28T16:51:40.001Z,97142.97
2023-03-28T16:52:41.829Z,97151.75
2023-03-28T16:53:43.262Z,97145.03
2023-03-28T16:54:48.342Z,97140.63
2023-03-28T16:55:51.240Z,97147.63
